createdAt,value
2023-04-07T00:01:00.901Z,101751.94
2023-04-07T00:03:28.123Z,101755.84
2023-04-07T00:05:55.128Z,101758.59
2023-04-07T00:08:22.221Z,101752.19
2023-04-07T00:10:51.228Z,101755.19
2023-04-07T00:13:18.189Z,101752.56
2023-04-07T00:15:45.213Z,101747.59
2023-04-07T00:18:12.110Z,101753.41
2023-04-07T00:20:39.350Z,101754.22
2023-04-07T00:23:06.402Z,101740.28
2023-04-07T00:25:33.364Z,101746.16
2023-04-07T00:28:00.219Z,101744.66
2023-04-07T00:30:27.074Z,101736.78
2023-04-07T00:32:59.306Z,101743.88
2023-04-07T00:35:26.421Z,101743.66
2023-04-07T00:37:53.544Z,101743.03
2023-04-07T00:40:20.417Z,101750.22
2023-04-07T00:42:47.195Z,101746.66
2023-04-07T00:45:14.139Z,101740.56
2023-04-07T00:47:41.345Z,101742.78
2023-04-07T00:50:08.915Z,101754.66
2023-04-07T00:52:36.401Z,101743.00
2023-04-07T00:55:03.803Z,101750.31
2023-04-07T00:57:30.614Z,101749.66
2023-04-07T00:59:57.836Z,101741.13
2023-04-07T01:03:02.387Z,101741.13
2023-04-07T01:05:48.116Z,101742.56
2023-04-07T01:08:33.472Z,101744.47
2023-04-07T01:11:09.056Z,101751.03
2023-04-07T01:13:46.343Z,101747.94
2023-04-07T01:16:19.161Z,101748.00
2023-04-07T01:18:48.929Z,101760.91
2023-04-07T01:21:18.336Z,101746.56
2023-04-07T01:23:57.617Z,101744.88
2023-04-07T01:26:33.695Z,101745.91
2023-04-07T01:29:33.246Z,101746.13
2023-04-07T01:32:02.421Z,101750.59
2023-04-07T01:34:32.063Z,101746.47
2023-04-07T01:37:01.773Z,101753.16
2023-04-07T01:39:29.448Z,101750.94
2023-04-07T01:41:58.676Z,101756.66
2023-04-07T01:44:26.520Z,101746.91
2023-04-07T01:46:55.883Z,101755.13
2023-04-07T01:49:25.545Z,101759.50
2023-04-07T01:51:53.433Z,101751.22
2023-04-07T01:54:22.034Z,101762.81
2023-04-07T01:56:48.866Z,101750.81
2023-04-07T01:59:15.824Z,101756.69
2023-04-07T02:01:42.739Z,101753.28
2023-04-07T02:04:26.426Z,101758.41
2023-04-07T02:07:01.899Z,101759.16
2023-04-07T02:09:32.196Z,101763.47
2023-04-07T02:12:01.576Z,101760.00
2023-04-07T02:14:29.392Z,101769.97
2023-04-07T02:16:56.674Z,101760.78
2023-04-07T02:19:23.740Z,101774.22
2023-04-07T02:21:52.385Z,101760.91
2023-04-07T02:24:22.554Z,101746.34
2023-04-07T02:26:49.675Z,101753.78
2023-04-07T02:29:16.699Z,101767.88
2023-04-07T02:31:43.880Z,101768.06
2023-04-07T02:34:10.984Z,101758.13
2023-04-07T02:36:40.797Z,101758.72
2023-04-07T02:39:12.745Z,101769.91
2023-04-07T02:41:40.124Z,101772.53
2023-04-07T02:44:07.030Z,101770.59
2023-04-07T02:46:34.019Z,101773.25
2023-04-07T02:49:01.291Z,101771.34
2023-04-07T02:51:28.056Z,101779.34
2023-04-07T02:53:55.661Z,101783.47
2023-04-07T02:56:22.981Z,101781.22
2023-04-07T02:58:50.029Z,101784.41
2023-04-07T03:01:17.049Z,101788.81
2023-04-07T03:03:45.290Z,101788.19
2023-04-07T03:06:12.397Z,101796.41
2023-04-07T03:08:39.395Z,101793.22
2023-04-07T03:11:06.639Z,101791.47
2023-04-07T03:13:33.715Z,101786.47
2023-04-07T03:16:00.461Z,101790.69
2023-04-07T03:18:27.373Z,101802.56
2023-04-07T03:20:55.766Z,101797.47
2023-04-07T03:23:24.353Z,101801.38
2023-04-07T03:25:51.116Z,101795.56
2023-04-07T03:28:18.073Z,101796.13
2023-04-07T03:30:44.963Z,101799.97
2023-04-07T03:33:12.617Z,101796.88
2023-04-07T03:35:39.629Z,101794.88
2023-04-07T03:38:06.593Z,101797.00
2023-04-07T03:40:33.887Z,101798.09
2023-04-07T03:43:01.554Z,101792.03
2023-04-07T03:45:28.439Z,101798.03
2023-04-07T03:47:55.755Z,101793.25
2023-04-07T03:50:22.811Z,101805.59
2023-04-07T03:52:49.704Z,101806.06
2023-04-07T03:55:16.667Z,101802.59
2023-04-07T03:57:44.344Z,101808.25
2023-04-07T04:00:11.912Z,101812.19
2023-04-07T04:02:38.979Z,101815.91
2023-04-07T04:05:06.128Z,101819.13
2023-04-07T04:07:33.895Z,101822.25
2023-04-07T04:10:00.697Z,101818.41
2023-04-07T04:12:27.653Z,101818.16
2023-04-07T04:14:54.774Z,101829.94
2023-04-07T04:17:21.804Z,101828.13
2023-04-07T04:19:48.820Z,101831.00
2023-04-07T04:22:15.806Z,101829.94
2023-04-07T04:24:42.861Z,101837.94
2023-04-07T04:27:09.817Z,101842.03
2023-04-07T04:29:37.197Z,101844.28
2023-04-07T04:32:04.347Z,101837.34
2023-04-07T04:34:31.682Z,101845.47
2023-04-07T04:36:58.614Z,101848.59
2023-04-07T04:39:25.602Z,101847.38
2023-04-07T04:41:52.628Z,101854.31
2023-04-07T04:44:19.641Z,101852.31
2023-04-07T04:46:46.769Z,101855.63
2023-04-07T04:49:14.847Z,101845.03
2023-04-07T04:51:42.087Z,101860.69
2023-04-07T04:54:08.940Z,101862.69
2023-04-07T04:56:36.335Z,101865.22
2023-04-07T04:59:08.053Z,101869.84
2023-04-07T05:01:34.989Z,101876.22
2023-04-07T05:04:02.070Z,101868.19
2023-04-07T05:06:31.322Z,101874.53
2023-04-07T05:08:58.345Z,101869.50
2023-04-07T05:11:25.275Z,101874.84
2023-04-07T05:13:52.488Z,101875.13
2023-04-07T05:16:19.653Z,101877.50
2023-04-07T05:18:46.764Z,101887.66
2023-04-07T05:21:13.823Z,101884.91
2023-04-07T05:23:42.010Z,101883.53
2023-04-07T05:26:08.843Z,101891.75
2023-04-07T05:28:35.669Z,101887.66
2023-04-07T05:31:02.622Z,101861.97
2023-04-07T05:33:29.676Z,101889.13
2023-04-07T05:35:56.634Z,101893.34
2023-04-07T05:38:23.520Z,101899.34
2023-04-07T05:40:50.999Z,101899.34
2023-04-07T05:43:18.121Z,101897.22
2023-04-07T05:45:45.045Z,101892.97
2023-04-07T05:48:12.568Z,101905.63
2023-04-07T05:50:39.397Z,101900.72
2023-04-07T05:53:06.497Z,101902.16
2023-04-07T05:55:34.652Z,101909.50
2023-04-07T05:58:01.784Z,101906.03
2023-04-07T06:00:28.654Z,101910.47
2023-04-07T06:02:55.767Z,101911.22
2023-04-07T06:05:22.624Z,101911.84
2023-04-07T06:07:52.365Z,101926.28
2023-04-07T06:10:19.399Z,101915.84
2023-04-07T06:12:46.321Z,101924.19
2023-04-07T06:15:13.492Z,101913.06
2023-04-07T06:17:40.610Z,101918.59
2023-04-07T06:20:07.989Z,101922.75
2023-04-07T06:22:34.812Z,101921.28
2023-04-07T06:25:01.598Z,101913.38
2023-04-07T06:27:28.703Z,101919.22
2023-04-07T06:29:57.082Z,101915.22
2023-04-07T06:32:24.114Z,101925.66
2023-04-07T06:34:50.939Z,101926.31
2023-04-07T06:37:20.787Z,101918.72
2023-04-07T06:39:47.898Z,101932.75
2023-04-07T06:42:15.012Z,101940.03
2023-04-07T06:44:42.116Z,101936.31
2023-04-07T06:47:09.587Z,101936.34
2023-04-07T06:49:37.569Z,101947.59
2023-04-07T06:52:05.473Z,101950.94
2023-04-07T06:54:32.497Z,101955.34
2023-04-07T06:56:59.354Z,101948.56
2023-04-07T06:59:26.557Z,101954.25
2023-04-07T07:01:53.569Z,101958.59
2023-04-07T07:04:20.768Z,101958.44
2023-04-07T07:06:47.752Z,101958.94
2023-04-07T07:09:14.450Z,101966.28
2023-04-07T07:11:41.318Z,101956.75
2023-04-07T07:14:08.262Z,101971.09
2023-04-07T07:16:35.083Z,101964.63
2023-04-07T07:19:01.992Z,101968.06
2023-04-07T07:21:28.907Z,101962.09
2023-04-07T07:23:55.861Z,101967.91
2023-04-07T07:26:22.821Z,101962.06
2023-04-07T07:28:49.804Z,101970.91
2023-04-07T07:31:17.004Z,101965.13
2023-04-07T07:33:46.237Z,101971.56
2023-04-07T07:36:13.412Z,101961.19
2023-04-07T07:38:40.782Z,101972.91
2023-04-07T07:41:08.014Z,101976.22
2023-04-07T07:43:35.095Z,101982.13
2023-04-07T07:46:02.056Z,101985.09
2023-04-07T07:48:29.284Z,101989.59
2023-04-07T07:50:57.236Z,101996.94
2023-04-07T07:53:24.184Z,101977.69
2023-04-07T07:55:51.488Z,101995.13
2023-04-07T07:58:18.585Z,101999.13
2023-04-07T08:00:45.466Z,101990.94
2023-04-07T08:03:12.436Z,102004.69
2023-04-07T08:05:39.439Z,102013.66
2023-04-07T08:08:06.326Z,102007.66
2023-04-07T08:10:33.145Z,102007.00
2023-04-07T08:13:00.028Z,102007.22
2023-04-07T08:15:27.420Z,102000.47
2023-04-07T08:17:55.525Z,101995.34
2023-04-07T08:20:24.179Z,102020.66
2023-04-07T08:22:51.177Z,102013.81
2023-04-07T08:25:18.318Z,102016.66
2023-04-07T08:27:45.705Z,102002.38
2023-04-07T08:30:12.994Z,102003.28
2023-04-07T08:32:44.659Z,102001.47
2023-04-07T08:35:14.243Z,101992.56
2023-04-07T08:37:43.694Z,101995.06
2023-04-07T08:40:11.242Z,101988.97
2023-04-07T08:42:45.285Z,102008.28
2023-04-07T08:45:13.824Z,102001.59
2023-04-07T08:47:44.488Z,102007.56
2023-04-07T08:50:12.098Z,102007.72
2023-04-07T08:52:48.850Z,102000.97
2023-04-07T08:55:15.988Z,102000.44
2023-04-07T08:57:43.623Z,102020.63
2023-04-07T09:00:11.549Z,102017.22
2023-04-07T09:02:40.114Z,102001.34
2023-04-07T09:05:09.195Z,102014.34
2023-04-07T09:07:37.978Z,102017.19
2023-04-07T09:10:05.956Z,102019.50
2023-04-07T09:12:34.543Z,102008.16
2023-04-07T09:15:01.563Z,102010.47
2023-04-07T09:17:29.788Z,102023.19
2023-04-07T09:19:57.878Z,102018.44
2023-04-07T09:22:47.633Z,102027.13
2023-04-07T09:25:24.159Z,102014.53
2023-04-07T09:28:01.923Z,102010.56
2023-04-07T09:30:30.695Z,101998.63
2023-04-07T09:32:59.204Z,102011.31
2023-04-07T09:35:28.546Z,102013.56
2023-04-07T09:38:09.890Z,102006.41
2023-04-07T09:40:37.826Z,101996.63
2023-04-07T09:43:06.113Z,101995.44
2023-04-07T09:45:36.514Z,101989.06
2023-04-07T09:48:20.398Z,101991.72
2023-04-07T09:50:51.214Z,101993.81
2023-04-07T09:53:20.313Z,101985.13
2023-04-07T09:55:48.282Z,101963.72
2023-04-07T09:58:16.933Z,101978.03
2023-04-07T10:00:44.638Z,102001.03
2023-04-07T10:03:12.479Z,101992.56
2023-04-07T10:05:39.688Z,102006.78
2023-04-07T10:08:06.961Z,102005.44
2023-04-07T10:10:36.910Z,101994.59
2023-04-07T10:13:06.296Z,101995.66
2023-04-07T10:15:33.806Z,101985.13
2023-04-07T10:18:01.100Z,101990.38
2023-04-07T10:20:29.680Z,101987.03
2023-04-07T10:23:09.297Z,101998.78
2023-04-07T10:25:37.581Z,101996.38
2023-04-07T10:28:08.420Z,102000.50
2023-04-07T10:30:36.655Z,101999.25
2023-04-07T10:33:03.776Z,102004.47
2023-04-07T10:36:07.494Z,102005.22
2023-04-07T10:38:34.725Z,102014.59
2023-04-07T10:41:42.553Z,101999.22
2023-04-07T10:44:31.459Z,102006.28
2023-04-07T10:47:01.233Z,102000.72
2023-04-07T10:49:28.108Z,102013.47
2023-04-07T10:52:27.506Z,102019.03
2023-04-07T10:55:32.215Z,102023.00
2023-04-07T10:58:25.811Z,102019.13
2023-04-07T11:01:02.198Z,102003.31
2023-04-07T11:03:31.172Z,102005.94
2023-04-07T11:06:04.810Z,102009.63
2023-04-07T11:08:36.472Z,102007.19
2023-04-07T11:11:09.597Z,102028.84
2023-04-07T11:13:45.135Z,102008.91
2023-04-07T11:16:12.852Z,102000.97
2023-04-07T11:18:41.595Z,102004.78
2023-04-07T11:21:09.643Z,102006.16
2023-04-07T11:23:46.671Z,102008.94
2023-04-07T11:26:15.894Z,102008.91
2023-04-07T11:28:52.039Z,102004.84
2023-04-07T11:31:31.648Z,102003.75
2023-04-07T11:34:05.060Z,102014.41
2023-04-07T11:36:39.022Z,101998.41
2023-04-07T11:39:06.066Z,102017.97
2023-04-07T11:41:34.019Z,102025.03
2023-04-07T11:44:05.677Z,102008.78
2023-04-07T11:46:32.625Z,102022.25
2023-04-07T11:49:14.024Z,102013.56
2023-04-07T11:51:43.134Z,102013.00
2023-04-07T11:54:11.348Z,102012.34
2023-04-07T11:56:48.468Z,102014.00
2023-04-07T11:59:25.240Z,102011.47
2023-04-07T12:01:56.036Z,102026.75
2023-04-07T12:04:24.231Z,102034.03
2023-04-07T12:06:51.933Z,102022.91
2023-04-07T12:09:34.977Z,102027.44
2023-04-07T12:12:03.665Z,102027.97
2023-04-07T12:14:30.609Z,102019.31
2023-04-07T12:16:58.372Z,102024.78
2023-04-07T12:19:29.057Z,102031.63
2023-04-07T12:21:57.031Z,102037.47
2023-04-07T12:24:24.317Z,102037.44
2023-04-07T12:26:51.246Z,102042.78
2023-04-07T12:29:20.418Z,102039.50
2023-04-07T12:31:50.669Z,102048.19
2023-04-07T12:34:18.400Z,102045.13
2023-04-07T12:36:45.382Z,102050.47
2023-04-07T12:39:12.473Z,102062.66
2023-04-07T12:41:40.004Z,102059.13
2023-04-07T12:44:07.017Z,102055.59
2023-04-07T12:46:34.333Z,102069.44
2023-04-07T12:49:01.450Z,102070.34
2023-04-07T12:51:28.653Z,102070.88
2023-04-07T12:53:55.579Z,102065.88
2023-04-07T12:56:25.536Z,102062.78
2023-04-07T12:58:53.611Z,102072.66
2023-04-07T13:01:21.543Z,102071.31
2023-04-07T13:03:48.904Z,102069.53
2023-04-07T13:06:16.271Z,102066.94
2023-04-07T13:08:43.187Z,102069.00
2023-04-07T13:11:10.106Z,102060.53
2023-04-07T13:13:37.307Z,102055.75
2023-04-07T13:16:04.563Z,102059.50
2023-04-07T13:18:31.494Z,102057.91
2023-04-07T13:21:33.775Z,102059.94
2023-04-07T13:23:45.729Z,102061.56
2023-04-07T13:26:12.638Z,102058.06
2023-04-07T13:28:39.983Z,102057.06
2023-04-07T13:31:07.968Z,102027.56
2023-04-07T13:33:35.221Z,102057.03
2023-04-07T13:36:02.328Z,102054.41
2023-04-07T13:38:29.166Z,102056.06
2023-04-07T13:40:55.946Z,102056.41
2023-04-07T13:43:22.830Z,102056.66
2023-04-07T13:45:49.994Z,102061.47
2023-04-07T13:48:17.534Z,102068.56
2023-04-07T13:50:44.577Z,102046.69
2023-04-07T13:53:11.613Z,102057.34
2023-04-07T13:55:39.178Z,102062.09
2023-04-07T13:58:06.209Z,102073.91
2023-04-07T14:00:35.913Z,102064.38
2023-04-07T14:03:04.693Z,102064.13
2023-04-07T14:05:31.994Z,102063.31
2023-04-07T14:07:58.781Z,102059.69
2023-04-07T14:10:26.010Z,102055.25
2023-04-07T14:12:53.271Z,102049.41
2023-04-07T14:15:20.379Z,102051.94
2023-04-07T14:17:47.315Z,102061.31
2023-04-07T14:20:14.377Z,102058.25
2023-04-07T14:22:41.423Z,102063.44
2023-04-07T14:25:08.349Z,102062.09
2023-04-07T14:27:35.639Z,102063.53
2023-04-07T14:30:05.963Z,102072.28
2023-04-07T14:32:34.570Z,102059.59
2023-04-07T14:35:02.133Z,102067.41
2023-04-07T14:37:29.639Z,102058.44
2023-04-07T14:42:26.997Z,102067.38
2023-04-07T14:44:53.926Z,102060.63
2023-04-07T14:47:21.233Z,102051.81
2023-04-07T14:49:51.861Z,102055.78
2023-04-07T14:52:22.144Z,102062.72
2023-04-07T14:54:49.323Z,102068.72
2023-04-07T14:57:17.140Z,102073.53
2023-04-07T14:59:44.289Z,102068.78
2023-04-07T15:02:13.643Z,102059.25
2023-04-07T15:04:43.687Z,102074.84
2023-04-07T15:07:10.792Z,102077.47
2023-04-07T15:09:37.798Z,102079.41
2023-04-07T15:12:05.413Z,102078.97
2023-04-07T15:14:32.390Z,102076.09
2023-04-07T15:16:59.206Z,102088.19
2023-04-07T15:19:26.067Z,102077.31
2023-04-07T15:21:53.050Z,102082.31
2023-04-07T15:24:21.720Z,102080.59
2023-04-07T15:26:49.754Z,102097.47
2023-04-07T15:29:16.689Z,102096.81
2023-04-07T15:31:43.773Z,102094.47
2023-04-07T15:34:12.103Z,102103.00
2023-04-07T15:36:38.970Z,102109.88
2023-04-07T15:39:09.995Z,102103.13
2023-04-07T15:41:37.204Z,102118.91
2023-04-07T15:44:04.594Z,102121.19
2023-04-07T15:46:34.614Z,102115.69
2023-04-07T15:49:02.020Z,102117.38
2023-04-07T15:51:29.837Z,102119.59
2023-04-07T15:53:56.889Z,102121.84
2023-04-07T15:56:25.052Z,102118.66
2023-04-07T15:58:52.154Z,102119.06
2023-04-07T16:01:19.454Z,102126.72
2023-04-07T16:03:47.960Z,102121.50
2023-04-07T16:06:15.590Z,102128.59
2023-04-07T16:08:42.555Z,102135.75
2023-04-07T16:11:09.597Z,102136.66
2023-04-07T16:13:36.453Z,102133.72
2023-04-07T16:16:03.572Z,102141.28
2023-04-07T16:18:30.578Z,102140.72
2023-04-07T16:20:57.440Z,102151.00
2023-04-07T16:23:24.701Z,102150.41
2023-04-07T16:25:51.567Z,102154.59
2023-04-07T16:28:18.557Z,102150.44
2023-04-07T16:30:45.560Z,102154.28
2023-04-07T16:33:13.095Z,102158.69
2023-04-07T16:35:40.250Z,102168.38
2023-04-07T16:38:07.220Z,102166.41
2023-04-07T16:40:34.401Z,102170.00
2023-04-07T16:43:01.779Z,102160.84
2023-04-07T16:45:28.863Z,102184.25
2023-04-07T16:47:56.311Z,102157.91
2023-04-07T16:50:23.320Z,102182.94
2023-04-07T16:52:50.618Z,102182.34
2023-04-07T16:55:17.819Z,102193.19
2023-04-07T16:57:44.677Z,102201.19
2023-04-07T17:00:12.422Z,102198.66
2023-04-07T17:02:39.471Z,102210.28
2023-04-07T17:05:06.851Z,102205.44
2023-04-07T17:07:33.676Z,102222.81
2023-04-07T17:10:00.806Z,102215.56
2023-04-07T17:12:28.216Z,102221.03
2023-04-07T17:14:55.069Z,102217.69
2023-04-07T17:17:22.238Z,102227.34
2023-04-07T17:19:49.105Z,102234.69
2023-04-07T17:22:16.469Z,102238.31
2023-04-07T17:24:43.935Z,102241.19
2023-04-07T17:27:10.896Z,102249.59
2023-04-07T17:29:38.153Z,102230.53
2023-04-07T17:32:05.562Z,102242.72
2023-04-07T17:34:32.703Z,102253.00
2023-04-07T17:36:59.853Z,102259.16
2023-04-07T17:39:26.988Z,102265.72
2023-04-07T17:41:53.968Z,102263.22
2023-04-07T17:44:21.281Z,102265.38
2023-04-07T17:46:49.099Z,102275.06
2023-04-07T17:49:16.156Z,102272.75
2023-04-07T17:51:43.163Z,102260.38
2023-04-07T17:54:10.020Z,102272.38
2023-04-07T17:56:38.304Z,102277.00
2023-04-07T17:59:05.252Z,102281.78
2023-04-07T18:01:32.497Z,102288.69
2023-04-07T18:04:00.527Z,102287.19
2023-04-07T18:06:28.717Z,102294.78
2023-04-07T18:08:56.109Z,102290.06
2023-04-07T18:11:23.077Z,102308.44
2023-04-07T18:13:50.290Z,102304.75
2023-04-07T18:16:22.078Z,102302.50
2023-04-07T18:18:49.721Z,102293.69
2023-04-07T18:21:16.743Z,102297.72
2023-04-07T18:23:43.790Z,102301.59
2023-04-07T18:26:13.886Z,102305.97
2023-04-07T18:28:40.892Z,102320.53
2023-04-07T18:31:08.435Z,102320.78
2023-04-07T18:33:36.493Z,102313.91
2023-04-07T18:36:07.295Z,102313.84
2023-04-07T18:38:36.333Z,102322.81
2023-04-07T18:41:03.981Z,102330.75
2023-04-07T18:43:31.624Z,102332.94
2023-04-07T18:45:59.869Z,102334.84
2023-04-07T18:48:27.415Z,102335.91
2023-04-07T18:50:55.743Z,102327.31
2023-04-07T18:53:24.619Z,102333.84
2023-04-07T18:55:52.714Z,102345.31
2023-04-07T18:58:20.340Z,102344.34
2023-04-07T19:00:50.206Z,102345.31
2023-04-07T19:03:17.792Z,102345.88
2023-04-07T19:05:47.430Z,102345.88
2023-04-07T19:08:16.083Z,102366.06
2023-04-07T19:10:46.449Z,102364.09
2023-04-07T19:13:15.916Z,102365.16
2023-04-07T19:15:46.528Z,102362.34
2023-04-07T19:18:13.765Z,102368.59
2023-04-07T19:20:40.782Z,102359.72
2023-04-07T19:23:08.134Z,102365.84
2023-04-07T19:25:35.314Z,102303.44
2023-04-07T19:28:03.352Z,102361.63
2023-04-07T19:30:30.516Z,102371.69
2023-04-07T19:32:58.011Z,102374.94
2023-04-07T19:35:25.225Z,102375.78
2023-04-07T19:37:52.714Z,102374.47
2023-04-07T19:40:20.017Z,102377.31
2023-04-07T19:42:47.352Z,102380.34
2023-04-07T19:45:14.585Z,102374.91
2023-04-07T19:47:42.593Z,102377.88
2023-04-07T19:50:11.448Z,102382.31
2023-04-07T19:52:39.097Z,102390.44
2023-04-07T19:55:07.873Z,102384.50
2023-04-07T19:57:40.494Z,102387.94
2023-04-07T20:00:11.041Z,102389.28
2023-04-07T20:02:41.468Z,102377.81
2023-04-07T20:05:09.115Z,102381.00
2023-04-07T20:07:36.007Z,102379.56
2023-04-07T20:10:04.116Z,102380.66
2023-04-07T20:12:31.052Z,102376.38
2023-04-07T20:14:58.039Z,102384.94
2023-04-07T20:17:24.998Z,102385.03
2023-04-07T20:19:55.862Z,102367.34
2023-04-07T20:22:23.178Z,102367.59
2023-04-07T20:24:50.077Z,102390.53
2023-04-07T20:27:18.524Z,102393.16
2023-04-07T20:29:45.411Z,102388.19
2023-04-07T20:32:12.493Z,102391.22
2023-04-07T20:34:39.606Z,102386.53
2023-04-07T20:37:06.726Z,102397.75
2023-04-07T20:39:33.757Z,102397.66
2023-04-07T20:42:00.632Z,102396.91
2023-04-07T20:44:29.734Z,102394.28
2023-04-07T20:46:56.961Z,102400.06
2023-04-07T20:49:23.973Z,102403.00
2023-04-07T20:51:53.906Z,102401.81
2023-04-07T20:54:20.720Z,102394.84
2023-04-07T20:56:47.695Z,102392.47
2023-04-07T20:59:14.738Z,102397.22
2023-04-07T21:01:41.873Z,102399.41
2023-04-07T21:04:10.065Z,102400.91
2023-04-07T21:06:37.428Z,102399.34
2023-04-07T21:09:06.067Z,102400.50
2023-04-07T21:11:33.015Z,102402.44
2023-04-07T21:14:00.401Z,102408.22
2023-04-07T21:16:27.622Z,102402.44
2023-04-07T21:18:54.617Z,102402.34
2023-04-07T21:21:23.418Z,102401.44
2023-04-07T21:23:50.585Z,102401.09
2023-04-07T21:26:17.548Z,102396.97
2023-04-07T21:28:44.431Z,102403.16
2023-04-07T21:31:11.632Z,102401.91
2023-04-07T21:33:39.560Z,102390.44
2023-04-07T21:36:06.886Z,102402.06
2023-04-07T21:38:33.932Z,102396.38
2023-04-07T21:41:01.191Z,102400.91
2023-04-07T21:43:29.055Z,102398.56
2023-04-07T21:45:56.893Z,102399.25
2023-04-07T21:48:24.848Z,102400.66
2023-04-07T21:50:52.566Z,102402.66
2023-04-07T21:53:19.721Z,102398.56
2023-04-07T21:55:46.602Z,102402.69
2023-04-07T21:58:13.549Z,102395.81
2023-04-07T22:00:40.675Z,102397.22
2023-04-07T22:03:08.042Z,102393.22
2023-04-07T22:05:35.138Z,102394.19
2023-04-07T22:08:03.539Z,102397.91
2023-04-07T22:10:30.781Z,102395.31
2023-04-07T22:12:57.837Z,102391.97
2023-04-07T22:15:25.304Z,102395.66
2023-04-07T22:17:52.325Z,102401.44
2023-04-07T22:20:19.514Z,102398.69
2023-04-07T22:22:46.688Z,102398.09
2023-04-07T22:25:13.770Z,102400.84
2023-04-07T22:27:40.823Z,102399.03
2023-04-07T22:30:10.280Z,102399.09
2023-04-07T22:32:37.233Z,102411.72
2023-04-07T22:35:04.820Z,102405.78
2023-04-07T22:37:31.702Z,102409.66
2023-04-07T22:39:58.695Z,102404.63
2023-04-07T22:42:25.747Z,102404.00
2023-04-07T22:44:53.081Z,102402.78
2023-04-07T22:47:21.865Z,102390.38
2023-04-07T22:49:48.928Z,102403.25
2023-04-07T22:52:15.909Z,102401.91
2023-04-07T22:54:42.831Z,102411.25
2023-04-07T22:57:09.986Z,102407.03
2023-04-07T22:59:40.050Z,102400.16
2023-04-07T23:02:07.097Z,102402.16
2023-04-07T23:04:34.297Z,102394.97
2023-04-07T23:07:01.660Z,102410.13
2023-04-07T23:09:28.754Z,102401.47
2023-04-07T23:11:57.239Z,102401.03
2023-04-07T23:14:24.026Z,102406.59
2023-04-07T23:16:51.404Z,102403.59
2023-04-07T23:19:18.497Z,102404.88
2023-04-07T23:21:45.625Z,102403.53
2023-04-07T23:24:12.530Z,102404.28
2023-04-07T23:26:39.406Z,102410.47
2023-04-07T23:29:06.290Z,102403.97
2023-04-07T23:31:33.346Z,102404.50
2023-04-07T23:34:00.275Z,102405.94
2023-04-07T23:36:27.465Z,102410.69
2023-04-07T23:38:59.283Z,102414.50
2023-04-07T23:41:26.335Z,102411.31
2023-04-07T23:43:53.200Z,102404.63
2023-04-07T23:46:20.130Z,102397.16
2023-04-07T23:48:47.137Z,102402.31
2023-04-07T23:51:14.884Z,102399.16
2023-04-07T23:53:41.862Z,102403.47
2023-04-07T23:56:09.423Z,102401.38
2023-04-07T23:58:36.434Z,102407.44
